Dawn Princess — ZCBU2 — position and weather

sailwx.info

Track history (hours):
 
Tides and Currents Weather Stations Pressure Air Temp Water Temp Dewpoint Dewpoint Depression Visibility Wind Speed Wind Dir Waves Ship Positions

Dawn Princess

Operator: Princess Cruises

Ship's website: http://www.princess.com/ships/dp/

Last reported at 2017-Apr-29 02:59 UTC. Time now 2017-Apr-29 03:28 UTC.
Position S 27°23' E 153°10'.

Length 261.3 m; beam 32.3 m; draft 8.1 m.

Type: Passenger vessel. MMSI: 310437000.

Date/timePositionNaut miles runAvg speedWind from/ knotsBaromVisibWave heightAir tempDewpointWater temp
2017-Apr-29 02:59S 27°23' E 153°10'0 0.0
2017-Apr-29 02:26S 27°23' E 153°10'0 0.0
2017-Apr-29 01:56S 27°23' E 153°10'0 0.0
2017-Apr-29 01:19S 27°23' E 153°10'0 0.0
2017-Apr-29 00:49S 27°23' E 153°10'0 0.0
2017-Apr-29 00:25S 27°23' E 153°10'0 0.0
2017-Apr-28 23:19S 27°23' E 153°10'0 0.0
2017-Apr-28 23:00S 27°23' E 153°10'0 0.0
2017-Apr-28 22:18S 27°23' E 153°10'0 0.0
2017-Apr-28 22:00S 27°23' E 153°10'0 0.0
2017-Apr-28 21:30S 27°23' E 153°10'0 0.0
2017-Apr-28 21:00S 27°23' E 153°10'0 0.5
2017-Apr-28 20:30S 27°23' E 153°10'3 5.2
2017-Apr-28 20:00S 27°21' E 153°11'612.9
2017-Apr-28 19:30S 27°16' E 153°16'713.1
2017-Apr-28 18:58S 27°11' E 153°21'31 4.2
2017-Apr-28 11:26S 27°37' E 153°41'613.1
2017-Apr-28 11:00S 27°42' E 153°41'612.6
2017-Apr-28 10:31S 27°48' E 153°42'612.4
2017-Apr-28 10:00S 27°55' E 153°42'612.4
2017-Apr-28 09:30S 28°01' E 153°42'612.8
2017-Apr-28 09:00S 28°07' E 153°43'27714.0
2017-Apr-27 13:10S 32°39' E 152°41'317.4
2017-Apr-27 13:01S 32°41' E 152°39'916.9
2017-Apr-27 12:30S 32°47' E 152°31'816.8
2017-Apr-27 12:00S 32°54' E 152°26'816.1
2017-Apr-27 11:30S 32°60' E 152°20'816.4
2017-Apr-27 11:00S 33°06' E 152°14'816.6
2017-Apr-27 10:31S 33°13' E 152°08'4716.5
2017-Apr-27 07:39S 33°46' E 151°28'215.5
2017-Apr-27 07:30S 33°47' E 151°25'6 0.5
2017-Apr-26 19:11S 33°50' E 151°19'213.1
2017-Apr-26 19:00S 33°50' E 151°22'611.4
2017-Apr-26 18:30S 33°46' E 151°28'816.7
2017-Apr-26 18:01S 33°40' E 151°34'918.3
2017-Apr-26 17:31S 33°34' E 151°42'1717.4
2017-Apr-26 16:33S 33°22' E 151°56'115.8
2017-Apr-26 16:28S 33°21' E 151°57'816.4
2017-Apr-26 16:01S 33°15' E 152°03'815.4
2017-Apr-26 15:30S 33°10' E 152°10'713.3
2017-Apr-26 15:00S 33°05' E 152°15'713.6
2017-Apr-26 14:30S 33°00' E 152°21'1313.2
2017-Apr-26 13:30S 32°51' E 152°31'713.1
2017-Apr-26 13:00S 32°46' E 152°37'713.1
2017-Apr-26 12:30S 32°41' E 152°42'713.5
2017-Apr-26 12:00S 32°36' E 152°48'714.4
2017-Apr-26 11:30S 32°29' E 152°51'25817.1
2017-Apr-25 20:21S 28°17' E 153°54'818.8
2017-Apr-25 19:55S 28°09' E 153°54'918.5
2017-Apr-25 19:26S 27°60' E 153°53'818.6
2017-Apr-25 19:00S 27°52' E 153°53'918.7
2017-Apr-25 18:30S 27°42' E 153°53'1018.9
2017-Apr-25 17:59S 27°33' E 153°52'1218.9
2017-Apr-25 17:20S 27°20' E 153°52'618.9
2017-Apr-25 17:00S 27°14' E 153°52'918.8
2017-Apr-25 16:30S 27°05' E 153°53'1018.7
2017-Apr-25 15:59S 26°55' E 153°54'1119.3
2017-Apr-25 15:24S 26°44' E 153°56'819.8
2017-Apr-25 15:00S 26°36' E 153°56'1020.3
2017-Apr-25 14:30S 26°26' E 153°57'36120.6
2017-Apr-24 21:00S 20°30' E 152°54'6015.1 160 / 151014.010.8 25.019.927.0
2017-Apr-24 17:00S 19°30' E 152°48'42517.7 160 / 151014.010.8 25.319.327.0
2017-Apr-23 17:00S 12°36' E 151°06'297 8.2 090 / 351009.610.8 28.023.927.0
2017-Apr-22 05:00S 07°42' E 150°24'82368.6 050 / 121008.210.8 26.524.527.0
2017-Apr-21 17:00N 05°42' E 147°30'56370.3 050 / 81007.610.8 28.024.627.0
2017-Apr-21 09:00S 03°36' E 146°18'20817.4 330 / 141007.710.8 27.525.527.0
2017-Apr-20 21:00S 00°12' E 145°36'6817.1 050 / 71013.010.8 27.524.127.0
2017-Apr-20 17:00N 00°54' E 145°18'44118.4 030 / 151009.310.8 26.223.927.0
2017-Apr-19 17:00N 08°00' E 143°24'15919.8 050 / 151009.710.8 28.024.627.0
2017-Apr-19 09:00N 10°36' E 142°54'   050 / 251009.910.8 28.024.627.0
Track history (hours):
 
Tides and Currents Weather Stations Pressure Air Temp Water Temp Dewpoint Dewpoint Depression Visibility Wind Speed Wind Dir Waves Ship Positions

Dawn Princess

Operator: Princess Cruises

Ship's website: http://www.princess.com/ships/dp/

Last reported at 2017-Apr-29 02:59 UTC. Time now 2017-Apr-29 03:28 UTC.
Position S 27°23' E 153°10'.

Length 261.3 m; beam 32.3 m; draft 8.1 m.

Type: Passenger vessel. MMSI: 310437000.

Date/timePositionNaut miles runAvg speedWind from/ knotsBaromVisibWave heightAir tempDewpointWater temp
2017-Apr-29 02:59S 27°23' E 153°10'0 0.0
2017-Apr-29 02:26S 27°23' E 153°10'0 0.0
2017-Apr-29 01:56S 27°23' E 153°10'0 0.0
2017-Apr-29 01:19S 27°23' E 153°10'0 0.0
2017-Apr-29 00:49S 27°23' E 153°10'0 0.0
2017-Apr-29 00:25S 27°23' E 153°10'0 0.0
2017-Apr-28 23:19S 27°23' E 153°10'0 0.0
2017-Apr-28 23:00S 27°23' E 153°10'0 0.0
2017-Apr-28 22:18S 27°23' E 153°10'0 0.0
2017-Apr-28 22:00S 27°23' E 153°10'0 0.0
2017-Apr-28 21:30S 27°23' E 153°10'0 0.0
2017-Apr-28 21:00S 27°23' E 153°10'0 0.5
2017-Apr-28 20:30S 27°23' E 153°10'3 5.2
2017-Apr-28 20:00S 27°21' E 153°11'612.9
2017-Apr-28 19:30S 27°16' E 153°16'713.1
2017-Apr-28 18:58S 27°11' E 153°21'31 4.2
2017-Apr-28 11:26S 27°37' E 153°41'613.1
2017-Apr-28 11:00S 27°42' E 153°41'612.6
2017-Apr-28 10:31S 27°48' E 153°42'612.4
2017-Apr-28 10:00S 27°55' E 153°42'612.4
2017-Apr-28 09:30S 28°01' E 153°42'612.8
2017-Apr-28 09:00S 28°07' E 153°43'27714.0
2017-Apr-27 13:10S 32°39' E 152°41'317.4
2017-Apr-27 13:01S 32°41' E 152°39'916.9
2017-Apr-27 12:30S 32°47' E 152°31'816.8
2017-Apr-27 12:00S 32°54' E 152°26'816.1
2017-Apr-27 11:30S 32°60' E 152°20'816.4
2017-Apr-27 11:00S 33°06' E 152°14'816.6
2017-Apr-27 10:31S 33°13' E 152°08'4716.5
2017-Apr-27 07:39S 33°46' E 151°28'215.5
2017-Apr-27 07:30S 33°47' E 151°25'6 0.5
2017-Apr-26 19:11S 33°50' E 151°19'213.1
2017-Apr-26 19:00S 33°50' E 151°22'611.4
2017-Apr-26 18:30S 33°46' E 151°28'816.7
2017-Apr-26 18:01S 33°40' E 151°34'918.3
2017-Apr-26 17:31S 33°34' E 151°42'1717.4
2017-Apr-26 16:33S 33°22' E 151°56'115.8
2017-Apr-26 16:28S 33°21' E 151°57'816.4
2017-Apr-26 16:01S 33°15' E 152°03'815.4
2017-Apr-26 15:30S 33°10' E 152°10'713.3
2017-Apr-26 15:00S 33°05' E 152°15'713.6
2017-Apr-26 14:30S 33°00' E 152°21'1313.2
2017-Apr-26 13:30S 32°51' E 152°31'713.1
2017-Apr-26 13:00S 32°46' E 152°37'713.1
2017-Apr-26 12:30S 32°41' E 152°42'713.5
2017-Apr-26 12:00S 32°36' E 152°48'714.4
2017-Apr-26 11:30S 32°29' E 152°51'25817.1
2017-Apr-25 20:21S 28°17' E 153°54'818.8
2017-Apr-25 19:55S 28°09' E 153°54'918.5
2017-Apr-25 19:26S 27°60' E 153°53'818.6
2017-Apr-25 19:00S 27°52' E 153°53'918.7
2017-Apr-25 18:30S 27°42' E 153°53'1018.9
2017-Apr-25 17:59S 27°33' E 153°52'1218.9
2017-Apr-25 17:20S 27°20' E 153°52'618.9
2017-Apr-25 17:00S 27°14' E 153°52'918.8
2017-Apr-25 16:30S 27°05' E 153°53'1018.7
2017-Apr-25 15:59S 26°55' E 153°54'1119.3
2017-Apr-25 15:24S 26°44' E 153°56'819.8
2017-Apr-25 15:00S 26°36' E 153°56'1020.3
2017-Apr-25 14:30S 26°26' E 153°57'36120.6
2017-Apr-24 21:00S 20°30' E 152°54'6015.1 160 / 151014.010.8 25.019.927.0
2017-Apr-24 17:00S 19°30' E 152°48'42517.7 160 / 151014.010.8 25.319.327.0
2017-Apr-23 17:00S 12°36' E 151°06'297 8.2 090 / 351009.610.8 28.023.927.0
2017-Apr-22 05:00S 07°42' E 150°24'82368.6 050 / 121008.210.8 26.524.527.0
2017-Apr-21 17:00N 05°42' E 147°30'56370.3 050 / 81007.610.8 28.024.627.0
2017-Apr-21 09:00S 03°36' E 146°18'20817.4 330 / 141007.710.8 27.525.527.0
2017-Apr-20 21:00S 00°12' E 145°36'6817.1 050 / 71013.010.8 27.524.127.0
2017-Apr-20 17:00N 00°54' E 145°18'44118.4 030 / 151009.310.8 26.223.927.0
2017-Apr-19 17:00N 08°00' E 143°24'15919.8 050 / 151009.710.8 28.024.627.0
2017-Apr-19 09:00N 10°36' E 142°54'   050 / 251009.910.8 28.024.627.0

Dump ship's entire track history